Time;durP1;ratioP1;P1;durP2;ratioP2;P2;SDS_P1;SDS_P2;PMS_P1;PMS_P2;Temp;Humidity;BMP_temperature;BMP_pressure;BME280_temperature;BME280_humidity;BME280_pressure;Samples;Min_cycle;Max_cycle;Signal;HPM_P1;HPM_P2
2024/01/05 00:01:18;;;;;;;1.40;1.20;;;;;;;1.65;91.12;95590.23;110746;1265;22147;-81
2024/01/05 00:03:54;;;;;;;2.40;1.80;;;;;;;1.63;90.85;95610.13;110767;1271;59366;-81
2024/01/05 00:06:26;;;;;;;2.40;1.50;;;;;;;1.62;90.55;95600.30;110776;1266;22256;-81
2024/01/05 00:09:12;;;;;;;2.60;1.60;;;;;;;1.61;89.56;95615.60;110791;1265;22192;-81
2024/01/05 00:11:48;;;;;;;3.50;1.70;;;;;;;1.60;88.73;95621.43;110761;1272;22218;-81
2024/01/05 00:14:25;;;;;;;2.20;1.50;;;;;;;1.58;88.44;95635.84;110710;1271;68143;-81
2024/01/05 00:16:59;;;;;;;2.00;1.50;;;;;;;1.56;88.31;95647.47;110783;1272;22285;-80
2024/01/05 00:19:35;;;;;;;2.40;1.60;;;;;;;1.55;88.25;95647.75;110798;1269;22280;-81
2024/01/05 00:22:07;;;;;;;3.50;2.10;;;;;;;1.53;88.49;95660.31;110754;1271;22184;-81
2024/01/05 00:24:46;;;;;;;3.10;2.00;;;;;;;1.49;88.97;95660.22;110592;1256;73060;-81
2024/01/05 00:27:18;;;;;;;2.20;1.30;;;;;;;1.51;89.11;95665.79;110746;1272;22165;-81
2024/01/05 00:29:54;;;;;;;3.40;2.50;;;;;;;1.51;89.32;95669.65;110768;1271;22267;-81
2024/01/05 00:32:39;;;;;;;2.70;2.00;;;;;;;1.50;89.26;95675.59;110756;1264;22322;-81
2024/01/05 00:35:12;;;;;;;3.70;1.90;;;;;;;1.49;89.47;95681.95;110647;1268;22182;-81
2024/01/05 00:37:46;;;;;;;2.60;1.90;;;;;;;1.48;89.50;95690.88;110621;1255;22325;-81
2024/01/05 00:40:19;;;;;;;3.40;2.40;;;;;;;1.45;89.21;95684.42;110645;1272;22196;-81
2024/01/05 00:42:59;;;;;;;1.50;1.40;;;;;;;1.40;89.12;95699.55;110515;1265;116073;-81
2024/01/05 00:45:36;;;;;;;2.30;1.90;;;;;;;1.37;89.27;95705.67;110777;1270;23026;-81
2024/01/05 00:48:11;;;;;;;2.20;1.80;;;;;;;1.34;89.45;95708.61;110779;1269;22167;-80
2024/01/05 00:50:42;;;;;;;2.80;2.30;;;;;;;1.31;89.36;95708.42;110523;1271;23262;-81
2024/01/05 00:53:13;;;;;;;3.00;2.00;;;;;;;1.28;89.47;95707.04;109250;1266;82523;-81
2024/01/05 00:55:54;;;;;;;3.50;2.60;;;;;;;1.26;89.35;95698.27;109360;1266;22563;-80
2024/01/05 00:58:28;;;;;;;3.90;2.00;;;;;;;1.22;89.28;95700.58;109360;1272;23123;-80
2024/01/05 01:01:09;;;;;;;2.40;1.90;;;;;;;1.18;89.68;95705.24;109372;1272;22529;-80
2024/01/05 01:03:47;;;;;;;2.60;2.00;;;;;;;1.18;89.52;95705.02;109322;1271;104898;-80
2024/01/05 01:06:20;;;;;;;1.60;1.20;;;;;;;1.17;89.58;95695.52;109406;1272;22556;-80
2024/01/05 01:09:03;;;;;;;2.50;2.20;;;;;;;1.17;89.52;95706.52;109399;1272;23243;-81
2024/01/05 01:11:39;;;;;;;3.00;1.80;;;;;;;1.14;89.57;95704.83;109369;1271;24285;-80
2024/01/05 01:14:13;;;;;;;2.50;1.80;;;;;;;1.14;89.56;95704.88;107835;1266;2047107;-80
2024/01/05 01:16:44;;;;;;;1.60;1.50;;;;;;;1.15;89.52;95697.69;109351;1271;23785;-81
2024/01/05 01:19:16;;;;;;;2.50;1.80;;;;;;;1.14;89.41;95694.59;109423;1266;22639;-80
2024/01/05 01:21:50;;;;;;;6.20;2.50;;;;;;;1.16;89.29;95692.52;109398;1266;22577;-80
2024/01/05 01:24:22;;;;;;;4.20;1.70;;;;;;;1.16;89.07;95684.48;109331;1265;95167;-80
2024/01/05 01:27:00;;;;;;;2.70;1.70;;;;;;;1.16;89.10;95685.31;109383;1272;22567;-80
2024/01/05 01:29:34;;;;;;;3.80;1.90;;;;;;;1.14;89.13;95690.58;109364;1272;22517;-80
2024/01/05 01:32:09;;;;;;;2.50;1.50;;;;;;;1.13;89.15;95683.92;109328;1266;22549;-80
2024/01/05 01:34:44;;;;;;;2.10;1.60;;;;;;;1.12;89.27;95684.42;107976;1269;1820569;-81
2024/01/05 01:37:16;;;;;;;3.00;2.10;;;;;;;1.12;89.21;95681.29;109384;1271;23263;-81
2024/01/05 01:40:00;;;;;;;3.70;2.50;;;;;;;1.12;89.24;95687.65;109342;1266;24196;-81
2024/01/05 01:42:34;;;;;;;4.10;2.80;;;;;;;1.12;89.42;95694.79;109335;1266;22517;-81
2024/01/05 01:45:06;;;;;;;3.30;2.20;;;;;;;1.12;89.48;95694.70;109337;1266;51630;-81
2024/01/05 01:47:41;;;;;;;3.60;2.00;;;;;;;1.14;89.43;95683.16;109370;1265;23341;-81
2024/01/05 01:50:13;;;;;;;3.20;2.60;;;;;;;1.14;89.81;95677.61;109360;1271;22571;-81
2024/01/05 01:52:48;;;;;;;4.00;2.30;;;;;;;1.10;89.56;95684.08;109374;1266;22801;-81
2024/01/05 01:55:23;;;;;;;5.00;2.70;;;;;;;1.08;89.78;95681.60;109330;1266;52321;-81
2024/01/05 01:57:55;;;;;;;4.00;2.30;;;;;;;1.07;89.76;95686.34;109395;1266;24037;-81
2024/01/05 02:00:33;;;;;;;2.90;2.00;;;;;;;1.07;89.95;95691.09;109371;1266;22561;-81
2024/01/05 02:03:12;;;;;;;2.90;2.10;;;;;;;1.07;90.10;95692.64;109366;1257;49588;-81
2024/01/05 02:05:47;;;;;;;;;;;;;;;1.10;90.19;95693.79;109408;1272;22533;-81
2024/01/05 02:08:20;;;;;;;2.10;1.60;;;;;;;1.13;90.10;95693.70;109397;1272;22535;-81
2024/01/05 02:10:51;;;;;;;3.90;1.60;;;;;;;1.15;90.01;95699.30;109426;1272;25307;-81
2024/01/05 02:13:26;;;;;;;2.90;1.80;;;;;;;1.16;89.91;95702.17;109311;1264;63559;-81
2024/01/05 02:16:00;;;;;;;2.60;2.10;;;;;;;1.14;90.17;95699.02;109385;1272;22553;-81
2024/01/05 02:18:32;;;;;;;3.50;1.50;;;;;;;1.12;89.95;95708.02;109305;1266;22530;-81
2024/01/05 02:21:15;;;;;;;3.70;2.50;;;;;;;1.11;89.98;95711.02;109379;1271;22632;-81
2024/01/05 02:23:54;;;;;;;3.90;2.20;;;;;;;1.11;89.94;95720.52;110554;1269;54676;-81
2024/01/05 02:26:25;;;;;;;3.90;2.00;;;;;;;1.12;89.94;95726.69;110750;1264;22271;-81
2024/01/05 02:29:04;;;;;;;3.90;2.10;;;;;;;1.14;90.22;95734.98;110750;1264;22248;-81
2024/01/05 02:31:36;;;;;;;3.70;2.40;;;;;;;1.18;90.15;95730.35;110765;1271;22285;-81
2024/01/05 02:34:13;;;;;;;2.00;1.40;;;;;;;1.22;90.04;95734.88;110777;1271;58188;-81
2024/01/05 02:36:48;;;;;;;3.20;1.90;;;;;;;1.24;90.12;95735.98;110734;1271;22261;-81
2024/01/05 02:39:22;;;;;;;3.40;1.90;;;;;;;1.22;90.24;95738.48;110739;1271;22277;-81
2024/01/05 02:41:58;;;;;;;3.70;2.00;;;;;;;1.22;90.20;95741.94;110746;1270;22061;-81
2024/01/05 02:44:38;;;;;;;1.80;1.30;;;;;;;1.23;90.20;95748.35;110664;1266;117076;-81
2024/01/05 02:47:16;;;;;;;2.80;2.00;;;;;;;1.21;90.24;95754.81;110777;1269;22204;-81
2024/01/05 02:52:54;;;;;;;3.00;1.70;;;;;;;1.21;90.22;95763.94;110730;1266;22181;-81
2024/01/05 02:55:27;;;;;;;4.70;1.90;;;;;;;1.20;90.37;95766.90;109397;1268;1765723;-81
2024/01/05 02:58:03;;;;;;;3.60;2.60;;;;;;;1.19;90.41;95769.04;110734;1271;23083;-81
2024/01/05 03:00:46;;;;;;;4.40;2.30;;;;;;;1.17;90.27;95764.74;110664;1265;22537;-81
2024/01/05 03:03:20;;;;;;;4.60;2.60;;;;;;;1.17;90.39;95766.14;109307;1272;77605;-81
2024/01/05 03:05:51;;;;;;;4.90;2.20;;;;;;;1.17;90.44;95769.74;109391;1266;22558;-81
2024/01/05 03:08:26;;;;;;;4.20;2.40;;;;;;;1.14;90.60;95771.70;109341;1250;22803;-81
2024/01/05 03:11:02;;;;;;;3.40;2.90;;;;;;;1.12;90.59;95770.17;109393;1272;24232;-80
2024/01/05 03:13:38;;;;;;;3.50;2.40;;;;;;;1.12;90.52;95776.91;109305;1266;64400;-81
2024/01/05 03:16:09;;;;;;;2.00;1.60;;;;;;;1.13;90.59;95779.60;109353;1259;22507;-81
2024/01/05 03:18:41;;;;;;;3.30;2.40;;;;;;;1.08;90.84;95775.23;109338;1266;22525;-81
2024/01/05 03:21:17;;;;;;;4.60;2.50;;;;;;;1.11;91.01;95782.17;109358;1272;22609;-81
2024/01/05 03:23:51;;;;;;;1.50;1.40;;;;;;;1.08;90.76;95780.42;109331;1270;65593;-80
2024/01/05 03:26:24;;;;;;;2.90;1.90;;;;;;;1.05;91.05;95774.26;109338;1271;22516;-80
2024/01/05 03:29:02;;;;;;;4.20;2.50;;;;;;;1.03;91.01;95766.77;109362;1266;25351;-81
2024/01/05 03:31:35;;;;;;;4.20;2.80;;;;;;;1.00;91.13;95766.99;109337;1272;24240;-81
2024/01/05 03:34:10;;;;;;;6.40;3.40;;;;;;;0.99;91.12;95775.80;109327;1266;33791;-80
2024/01/05 03:36:46;;;;;;;4.50;3.20;;;;;;;0.99;91.07;95783.95;109313;1266;22544;-80
2024/01/05 03:39:17;;;;;;;4.30;3.00;;;;;;;1.00;91.21;95793.77;109329;1268;22577;-81
2024/01/05 03:41:49;;;;;;;4.20;3.40;;;;;;;1.03;91.30;95797.20;109372;1272;23277;-80
2024/01/05 03:44:30;;;;;;;5.20;3.40;;;;;;;1.05;91.32;95800.20;107858;1269;2018823;-81
2024/01/05 03:47:06;;;;;;;4.50;3.00;;;;;;;1.04;91.32;95789.28;109286;1272;22821;-81
2024/01/05 03:49:41;;;;;;;4.50;3.40;;;;;;;1.07;91.23;95800.96;109338;1260;22560;-80
2024/01/05 03:52:12;;;;;;;5.30;3.90;;;;;;;1.05;91.37;95804.64;109335;1269;22562;-80
2024/01/05 03:54:45;;;;;;;4.60;3.50;;;;;;;1.06;91.42;95805.02;109304;1272;71547;-80
2024/01/05 03:57:21;;;;;;;6.40;3.90;;;;;;;1.07;91.36;95801.65;109335;1269;22538;-80
2024/01/05 03:59:53;;;;;;;4.70;3.50;;;;;;;1.09;91.63;95795.25;109394;1260;24877;-80
2024/01/05 04:02:24;;;;;;;3.90;3.40;;;;;;;1.10;91.51;95789.15;109426;1272;22569;-80
2024/01/05 04:04:58;;;;;;;4.20;3.20;;;;;;;1.08;91.50;95797.63;107976;1262;1865754;-80
2024/01/05 04:07:39;;;;;;;6.20;4.40;;;;;;;1.06;91.58;95794.79;109373;1272;24200;-80
2024/01/05 04:10:13;;;;;;;5.10;3.70;;;;;;;1.04;91.58;95796.45;109332;1269;23186;-81
2024/01/05 04:12:46;;;;;;;6.60;4.30;;;;;;;1.02;91.45;95796.14;109366;1272;22594;-81
2024/01/05 04:15:17;;;;;;;5.20;4.20;;;;;;;1.00;91.73;95797.79;109210;1260;129364;-81
2024/01/05 04:17:51;;;;;;;5.90;4.30;;;;;;;1.00;91.66;95799.72;109365;1265;22514;-80
2024/01/05 04:20:23;;;;;;;7.40;5.10;;;;;;;1.01;92.00;95801.09;109401;1250;23747;-81
2024/01/05 04:23:02;;;;;;;4.40;3.90;;;;;;;1.02;92.12;95801.94;109403;1272;22621;-80
2024/01/05 04:25:38;;;;;;;5.30;4.10;;;;;;;1.02;92.07;95797.82;109288;1270;71891;-80
2024/01/05 04:28:09;;;;;;;4.70;3.40;;;;;;;1.04;92.21;95793.98;109359;1272;22552;-80
2024/01/05 04:30:42;;;;;;;5.50;4.40;;;;;;;1.02;92.13;95788.21;109371;1266;22641;-80
2024/01/05 04:33:13;;;;;;;4.50;3.80;;;;;;;1.00;92.07;95780.29;109296;1272;60006;-81
2024/01/05 04:35:46;;;;;;;8.00;4.30;;;;;;;0.95;91.92;95781.30;109269;1271;22518;-80
2024/01/05 04:38:17;;;;;;;5.90;4.10;;;;;;;0.92;92.05;95785.60;109343;1266;22554;-81
2024/01/05 04:40:50;;;;;;;7.10;4.40;;;;;;;0.90;92.20;95786.35;109342;1266;25407;-80
2024/01/05 04:43:22;;;;;;;4.90;3.70;;;;;;;0.87;92.33;95784.69;109209;1269;57256;-80
2024/01/05 04:45:57;;;;;;;6.60;4.80;;;;;;;0.85;92.21;95784.40;109387;1272;22866;-80
2024/01/05 04:48:35;;;;;;;6.60;5.00;;;;;;;0.83;92.35;95778.09;109362;1271;22518;-81
2024/01/05 04:51:07;;;;;;;6.10;4.10;;;;;;;0.81;92.32;95776.70;109345;1272;25423;-80
2024/01/05 04:53:48;;;;;;;6.90;4.40;;;;;;;0.81;92.54;95788.27;109288;1269;119587;-80
2024/01/05 04:56:19;;;;;;;6.70;4.50;;;;;;;0.79;92.60;95799.21;109365;1266;22567;-80
2024/01/05 04:58:50;;;;;;;5.50;4.20;;;;;;;0.80;92.59;95802.45;109402;1272;22559;-81
2024/01/05 05:01:22;;;;;;;6.00;4.40;;;;;;;0.80;92.61;95805.23;109339;1272;24218;-80
2024/01/05 05:03:54;;;;;;;6.80;4.60;;;;;;;0.79;92.74;95813.47;109293;1269;89173;-80
2024/01/05 05:06:25;;;;;;;5.90;4.30;;;;;;;0.80;92.82;95815.34;109328;1272;24301;-80
2024/01/05 05:08:56;;;;;;;4.70;3.50;;;;;;;0.79;92.77;95809.17;109360;1272;22668;-80
2024/01/05 05:11:29;;;;;;;6.20;5.10;;;;;;;0.79;92.85;95813.36;109357;1272;22535;-80
2024/01/05 05:14:04;;;;;;;5.30;3.80;;;;;;;0.78;93.09;95819.55;109197;1266;146298;-80
2024/01/05 05:16:39;;;;;;;6.80;4.80;;;;;;;0.77;93.05;95830.42;109320;1272;22530;-80
2024/01/05 05:19:11;;;;;;;6.10;4.50;;;;;;;0.75;92.89;95830.52;109343;1270;22548;-80
2024/01/05 05:21:43;;;;;;;5.40;4.40;;;;;;;0.74;93.21;95828.98;109331;1272;23793;-80
2024/01/05 05:24:16;;;;;;;6.20;4.70;;;;;;;0.74;93.08;95824.80;109352;1269;48562;-80
2024/01/05 05:26:49;;;;;;;8.20;4.40;;;;;;;0.70;93.15;95823.27;109337;1257;22555;-80
2024/01/05 05:29:23;;;;;;;7.00;4.80;;;;;;;0.67;93.28;95826.59;109347;1272;25424;-80
2024/01/05 05:31:54;;;;;;;13.10;7.10;;;;;;;0.65;93.45;95831.95;109311;1269;23736;-80
2024/01/05 05:34:29;;;;;;;8.40;6.30;;;;;;;0.66;93.53;95835.50;107788;1270;2035831;-80
2024/01/05 05:37:04;;;;;;;7.50;5.40;;;;;;;0.66;93.84;95836.60;109316;1258;22565;-80
2024/01/05 05:39:38;;;;;;;8.50;6.00;;;;;;;0.74;94.27;95851.73;109317;1266;22587;-81
2024/01/05 05:42:17;;;;;;;6.00;4.20;;;;;;;0.80;94.34;95854.06;109300;1271;22542;-80
2024/01/05 05:45:04;;;;;;;7.30;5.10;;;;;;;0.83;94.14;95858.17;109297;1272;38000;-80
2024/01/05 05:47:38;;;;;;;6.70;5.50;;;;;;;0.86;94.42;95866.91;109348;1266;22569;-80
2024/01/05 05:50:13;;;;;;;7.00;5.10;;;;;;;0.89;94.47;95868.12;109358;1272;22518;-80
2024/01/05 05:52:45;;;;;;;8.10;6.10;;;;;;;0.89;94.33;95866.19;109387;1271;22578;-80
2024/01/05 05:55:16;;;;;;;7.70;5.50;;;;;;;0.92;94.54;95867.02;107800;1269;2085299;-80
2024/01/05 05:57:49;;;;;;;7.20;5.50;;;;;;;0.97;94.82;95871.84;109320;1271;22575;-80
2024/01/05 06:00:25;;;;;;;6.40;5.40;;;;;;;1.01;94.78;95876.89;109370;1272;23893;-81
2024/01/05 06:02:56;;;;;;;8.30;5.40;;;;;;;1.02;94.65;95884.57;109314;1269;22537;-80
2024/01/05 06:05:30;;;;;;;7.60;5.30;;;;;;;0.96;94.51;95888.67;109310;1265;58963;-80
2024/01/05 06:08:05;;;;;;;41.90;21.00;;;;;;;0.96;94.76;95890.88;109343;1269;22555;-80
2024/01/05 06:10:39;;;;;;;59.30;29.40;;;;;;;0.98;94.66;95889.13;109350;1272;23183;-80
2024/01/05 06:13:10;;;;;;;68.60;32.20;;;;;;;0.97;94.75;95884.98;109385;1269;22581;-80
2024/01/05 06:15:41;;;;;;;36.70;17.10;;;;;;;0.98;94.76;95889.95;109205;1269;79730;-81
2024/01/05 06:18:15;;;;;;;15.40;9.70;;;;;;;0.96;94.60;95889.83;109382;1266;23347;-80
2024/01/05 06:20:49;;;;;;;11.40;8.00;;;;;;;0.93;94.68;95892.28;109345;1266;23191;-80
2024/01/05 06:23:20;;;;;;;11.50;7.40;;;;;;;0.84;94.46;95893.96;107981;1269;2115590;-80
2024/01/05 06:25:52;;;;;;;11.10;7.20;;;;;;;0.72;94.44;95898.28;109303;1272;23338;-80
2024/01/05 06:28:29;;;;;;;13.10;8.60;;;;;;;0.62;94.42;95894.55;109316;1266;23878;-80
2024/01/05 06:31:00;;;;;;;12.00;8.60;;;;;;;0.55;94.56;95897.34;109317;1271;22607;-80
2024/01/05 06:33:39;;;;;;;12.30;8.20;;;;;;;0.52;94.58;95893.22;109267;1264;92472;-80
2024/01/05 06:36:10;;;;;;;12.40;8.00;;;;;;;0.50;94.40;95891.04;109325;1272;24212;-80
2024/01/05 06:38:45;;;;;;;10.20;7.30;;;;;;;0.43;94.68;95893.05;109364;1269;24811;-80
2024/01/05 06:41:18;;;;;;;9.50;6.40;;;;;;;0.39;94.70;95888.67;109288;1269;25435;-80
2024/01/05 06:43:51;;;;;;;8.60;5.90;;;;;;;0.34;94.67;95887.34;109299;1250;34362;-80
2024/01/05 06:46:22;;;;;;;8.30;5.10;;;;;;;0.31;94.87;95890.78;109307;1253;22514;-80
2024/01/05 06:48:56;;;;;;;7.00;5.00;;;;;;;0.28;95.01;95890.88;109291;1272;22609;-80
2024/01/05 06:51:30;;;;;;;7.50;5.20;;;;;;;0.32;95.46;95896.02;109350;1272;23173;-80
2024/01/05 06:54:04;;;;;;;8.30;5.40;;;;;;;0.40;95.73;95895.95;109308;1269;57184;-80
2024/01/05 06:56:36;;;;;;;6.90;4.50;;;;;;;0.45;95.57;95899.41;109338;1266;22561;-80
2024/01/05 06:59:16;;;;;;;6.20;5.00;;;;;;;0.47;95.63;95901.67;109337;1266;22652;-80
2024/01/05 07:01:50;;;;;;;5.90;4.40;;;;;;;0.44;95.65;95899.91;109326;1272;22585;-80
2024/01/05 07:04:24;;;;;;;6.10;4.50;;;;;;;0.53;96.11;95900.63;109281;1269;57405;-80
2024/01/05 07:07:00;;;;;;;5.80;4.30;;;;;;;0.54;96.10;95899.55;109373;1272;22519;-80
2024/01/05 07:09:34;;;;;;;7.10;5.10;;;;;;;0.46;95.55;95902.80;109327;1272;24408;-80
2024/01/05 07:12:08;;;;;;;7.90;5.70;;;;;;;0.40;95.80;95897.97;109334;1272;23814;-80
2024/01/05 07:14:40;;;;;;;8.30;5.90;;;;;;;0.39;95.73;95894.26;107943;1269;1870490;-80
2024/01/05 07:17:12;;;;;;;7.10;5.50;;;;;;;0.40;96.04;95886.77;109346;1272;25943;-80
2024/01/05 07:19:45;;;;;;;9.10;6.70;;;;;;;0.35;95.90;95880.52;109347;1269;26095;-80
2024/01/05 07:22:16;;;;;;;9.70;6.20;;;;;;;0.28;96.07;95883.89;109309;1266;22565;-80
2024/01/05 07:24:53;;;;;;;7.50;5.70;;;;;;;0.31;96.38;95891.03;109286;1269;57032;-80
2024/01/05 07:27:24;;;;;;;7.50;6.20;;;;;;;0.37;96.88;95898.50;109367;1250;22561;-80
2024/01/05 07:29:58;;;;;;;6.70;4.20;;;;;;;0.44;97.07;95894.89;109313;1272;23092;-80
2024/01/05 07:32:34;;;;;;;8.30;6.10;;;;;;;0.49;96.90;95886.79;109337;1269;22565;-80
2024/01/05 07:35:10;;;;;;;6.10;4.40;;;;;;;0.47;96.45;95891.86;109315;1269;56842;-80
2024/01/05 07:37:46;;;;;;;8.10;4.70;;;;;;;0.42;96.28;95897.82;109376;1269;24158;-80
2024/01/05 07:40:17;;;;;;;5.90;4.10;;;;;;;0.41;96.52;95896.23;109373;1253;22561;-80
2024/01/05 07:42:49;;;;;;;6.40;4.40;;;;;;;0.46;96.97;95893.57;109347;1272;22552;-80
2024/01/05 07:45:20;;;;;;;7.70;4.40;;;;;;;0.50;96.87;95883.80;109339;1257;47605;-80
2024/01/05 07:47:54;;;;;;;6.90;4.60;;;;;;;0.49;96.66;95883.03;109324;1266;22530;-80
2024/01/05 07:50:28;;;;;;;4.80;4.10;;;;;;;0.50;96.93;95887.90;109385;1267;22870;-80
2024/01/05 07:53:08;;;;;;;6.10;4.20;;;;;;;0.54;97.10;95894.95;109317;1272;22566;-80
2024/01/05 07:55:39;;;;;;;5.80;4.20;;;;;;;0.52;96.75;95893.06;109361;1272;50843;-80
2024/01/05 07:58:11;;;;;;;6.10;4.60;;;;;;;0.59;97.21;95889.69;109375;1266;22535;-80
2024/01/05 08:00:42;;;;;;;6.90;4.80;;;;;;;0.71;97.34;95892.73;109382;1269;24942;-80
2024/01/05 08:03:13;;;;;;;11.50;7.90;;;;;;;0.74;97.35;95880.23;109384;1272;22551;-80
2024/01/05 08:05:48;;;;;;;24.00;17.20;;;;;;;0.81;97.55;95880.34;109306;1266;80256;-80
2024/01/05 08:08:19;;;;;;;15.30;9.30;;;;;;;0.89;97.43;95880.73;109362;1272;22899;-80
2024/01/05 08:10:50;;;;;;;8.30;5.50;;;;;;;0.93;97.52;95886.38;109368;1262;23310;-80
2024/01/05 08:13:25;;;;;;;6.90;5.30;;;;;;;0.93;97.33;95890.29;109373;1272;22553;-80
2024/01/05 08:15:59;;;;;;;7.90;5.70;;;;;;;0.85;96.89;95894.98;109424;1272;22544;-80
2024/01/05 08:18:31;;;;;;;7.50;5.20;;;;;;;0.75;96.65;95899.48;109290;1266;22554;-80
2024/01/05 08:21:03;;;;;;;6.00;5.00;;;;;;;0.68;96.87;95905.14;109347;1272;22640;-79
2024/01/05 08:23:39;;;;;;;6.00;5.20;;;;;;;0.72;97.14;95899.16;109303;1272;52683;-80
2024/01/05 08:26:17;;;;;;;6.40;4.50;;;;;;;0.79;97.39;95902.21;109376;1269;22566;-80
2024/01/05 08:28:52;;;;;;;7.50;5.10;;;;;;;0.83;97.31;95901.95;109405;1266;22582;-80
2024/01/05 08:31:25;;;;;;;7.70;6.00;;;;;;;0.90;97.57;95903.84;109418;1269;23782;-80
2024/01/05 08:33:59;;;;;;;8.10;5.60;;;;;;;1.04;97.81;95901.98;109305;1269;58519;-80
2024/01/05 08:36:34;;;;;;;9.30;6.10;;;;;;;1.14;97.94;95900.00;109310;1268;22583;-80
2024/01/05 08:39:07;;;;;;;7.30;5.80;;;;;;;1.27;97.86;95896.41;109380;1269;24188;-80
2024/01/05 08:41:41;;;;;;;6.70;5.50;;;;;;;1.41;97.87;95901.64;109349;1272;22586;-80
2024/01/05 08:44:14;;;;;;;6.40;5.70;;;;;;;1.53;98.08;95904.65;109284;1272;65667;-80
2024/01/05 08:46:46;;;;;;;8.70;6.70;;;;;;;1.67;98.05;95903.81;109346;1266;22547;-80
2024/01/05 08:49:18;;;;;;;10.30;7.80;;;;;;;1.78;97.91;95901.63;109322;1272;22521;-80
2024/01/05 08:51:49;;;;;;;8.70;7.10;;;;;;;1.89;97.72;95910.30;109320;1266;22537;-80
2024/01/05 08:54:22;;;;;;;7.30;5.60;;;;;;;1.94;97.55;95910.10;109312;1266;39645;-80
2024/01/05 08:56:54;;;;;;;8.50;6.30;;;;;;;1.87;96.88;95915.17;109316;1272;25000;-80
2024/01/05 08:59:29;;;;;;;8.00;6.40;;;;;;;1.79;96.70;95919.77;109318;1272;24145;-80
2024/01/05 09:02:01;;;;;;;7.90;6.60;;;;;;;1.66;96.43;95920.37;109332;1272;22554;-80
2024/01/05 09:04:33;;;;;;;9.10;6.70;;;;;;;1.77;97.00;95919.84;109245;1265;79337;-80
2024/01/05 09:07:09;;;;;;;7.90;6.30;;;;;;;1.90;97.23;95916.11;109316;1272;23822;-80
2024/01/05 09:09:43;;;;;;;10.30;7.40;;;;;;;2.03;97.36;95916.87;109364;1271;22530;-80
2024/01/05 09:12:16;;;;;;;10.30;7.00;;;;;;;2.19;97.37;95914.16;109320;1272;23761;-80
2024/01/05 09:14:58;;;;;;;7.50;5.80;;;;;;;2.28;96.97;95907.43;109298;1269;92217;-80
2024/01/05 09:17:35;;;;;;;7.20;6.10;;;;;;;2.34;96.87;95909.85;109294;1262;22534;-80
2024/01/05 09:20:12;;;;;;;7.90;5.80;;;;;;;2.40;96.67;95915.79;109330;1269;22549;-80
2024/01/05 09:22:46;;;;;;;7.30;6.00;;;;;;;2.50;96.87;95915.42;109319;1272;22623;-80
2024/01/05 09:25:17;;;;;;;7.50;5.80;;;;;;;2.62;96.78;95915.73;107366;1269;2599555;-81
2024/01/05 09:27:54;;;;;;;10.20;6.80;;;;;;;2.71;96.60;95915.84;109356;1272;22617;-80
2024/01/05 09:30:37;;;;;;;9.20;6.70;;;;;;;2.75;96.20;95916.34;109379;1266;22602;-80
2024/01/05 09:33:09;;;;;;;8.80;7.40;;;;;;;2.85;96.45;95918.60;109328;1272;22520;-81
2024/01/05 09:35:42;;;;;;;7.90;6.10;;;;;;;2.99;96.39;95906.54;109287;1272;60291;-81
2024/01/05 09:38:18;;;;;;;7.50;6.20;;;;;;;3.13;96.16;95909.08;109348;1272;22518;-81
2024/01/05 09:40:54;;;;;;;8.40;6.10;;;;;;;3.31;96.29;95903.70;109276;1272;22563;-81
2024/01/05 09:43:32;;;;;;;7.90;6.60;;;;;;;3.50;96.11;95901.84;109312;1272;46896;-81
2024/01/05 09:46:11;;;;;;;11.00;8.10;;;;;;;3.48;95.52;95890.36;109348;1269;22551;-81
2024/01/05 09:48:44;;;;;;;9.80;7.40;;;;;;;3.65;95.93;95888.23;109382;1272;25300;-81
2024/01/05 09:51:18;;;;;;;8.70;6.70;;;;;;;3.84;95.58;95887.89;109341;1272;24211;-81
2024/01/05 09:53:56;;;;;;;8.50;6.70;;;;;;;3.85;94.98;95873.69;109336;1271;73152;-81
2024/01/05 09:56:32;;;;;;;9.50;7.10;;;;;;;3.84;94.73;95874.98;109368;1272;22721;-81
2024/01/05 09:59:09;;;;;;;8.10;6.50;;;;;;;3.58;94.09;95869.89;109256;1272;24781;-81
2024/01/05 10:01:51;;;;;;;11.10;7.10;;;;;;;3.42;94.17;95873.55;109389;1272;22563;-81
2024/01/05 10:04:31;;;;;;;9.40;8.10;;;;;;;3.41;94.29;95875.43;110660;1260;77107;-81
2024/01/05 10:07:21;;;;;;;10.30;8.40;;;;;;;3.33;94.15;95872.05;110711;1269;22938;-81
2024/01/05 10:10:12;;;;;;;9.00;7.00;;;;;;;3.31;94.10;95868.33;110700;1266;22304;-81
2024/01/05 10:12:45;;;;;;;8.20;7.00;;;;;;;3.38;94.28;95871.93;110253;1276;22442;-81
2024/01/05 10:15:18;;;;;;;8.30;6.80;;;;;;;3.38;93.98;95873.77;106347;1266;5485140;-81
2024/01/05 10:17:54;;;;;;;10.10;7.60;;;;;;;3.27;93.59;95875.33;110713;1271;22377;-82
2024/01/05 10:20:32;;;;;;;10.90;8.50;;;;;;;3.37;94.41;95878.27;110725;1272;22184;-81
2024/01/05 10:23:07;;;;;;;10.80;8.60;;;;;;;3.58;94.91;95869.77;110646;1272;22573;-81
2024/01/05 10:25:47;;;;;;;8.50;6.80;;;;;;;3.75;94.72;95872.52;109262;1272;51342;-81
2024/01/05 10:28:37;;;;;;;11.10;8.00;;;;;;;3.94;94.83;95870.39;109279;1272;22504;-81
2024/01/05 10:31:15;;;;;;;9.80;7.70;;;;;;;4.16;94.85;95871.48;109356;1272;22533;-81
2024/01/05 10:33:58;;;;;;;10.60;7.80;;;;;;;4.40;95.10;95869.02;107922;1270;1851771;-81
2024/01/05 10:36:35;;;;;;;10.80;8.40;;;;;;;4.67;95.23;95864.13;110738;1272;22267;-81
2024/01/05 10:39:14;;;;;;;10.20;8.10;;;;;;;4.79;94.63;95868.05;110710;1272;22471;-81
2024/01/05 10:41:47;;;;;;;9.60;7.60;;;;;;;4.56;93.33;95871.33;110732;1272;22127;-81
2024/01/05 10:44:19;;;;;;;10.00;7.20;;;;;;;4.35;93.07;95874.92;106654;1272;5093694;-81
2024/01/05 10:47:03;;;;;;;15.20;9.40;;;;;;;4.15;92.74;95875.73;110661;1272;22164;-81
2024/01/05 10:49:40;;;;;;;16.10;9.70;;;;;;;3.86;92.54;95880.13;110743;1272;22213;-81
2024/01/05 10:52:14;;;;;;;11.90;9.10;;;;;;;3.75;92.97;95881.53;110722;1272;22365;-81
2024/01/05 10:54:48;;;;;;;13.70;9.70;;;;;;;3.73;93.14;95883.45;109502;1272;136673;-81
2024/01/05 10:57:25;;;;;;;13.10;9.40;;;;;;;3.88;93.88;95884.71;110727;1272;22244;-81
2024/01/05 11:00:06;;;;;;;12.50;8.60;;;;;;;4.30;94.99;95875.90;110718;1272;22412;-81
2024/01/05 11:02:40;;;;;;;11.60;8.50;;;;;;;4.75;95.03;95870.18;110707;1266;22304;-81
2024/01/05 11:05:16;;;;;;;12.10;9.70;;;;;;;5.02;94.43;95862.98;110698;1272;49992;-81
2024/01/05 11:07:53;;;;;;;11.90;9.30;;;;;;;5.20;94.13;95860.42;110710;1264;22425;-81
2024/01/05 11:10:44;;;;;;;14.10;10.20;;;;;;;5.21;93.36;95859.54;110706;1272;22163;-81
2024/01/05 11:13:45;;;;;;;13.30;9.50;;;;;;;5.13;93.14;95857.48;110700;1272;22304;-81
2024/01/05 11:16:40;;;;;;;12.10;8.60;;;;;;;5.29;93.09;95849.45;110524;1273;22872;-81
2024/01/05 11:19:39;;;;;;;20.40;14.30;;;;;;;5.34;92.85;95842.30;110535;1268;22182;-81
2024/01/05 11:22:16;;;;;;;15.20;11.50;;;;;;;5.51;93.11;95843.71;110328;1270;22064;-81
2024/01/05 11:24:50;;;;;;;15.20;11.80;;;;;;;5.60;92.84;95842.33;110428;1273;104392;-81
2024/01/05 11:27:36;;;;;;;12.70;9.80;;;;;;;5.65;92.86;95840.34;110653;1272;22315;-81
2024/01/05 11:30:38;;;;;;;10.40;8.80;;;;;;;5.60;92.26;95836.30;110713;1266;22874;-82
2024/01/05 11:33:54;;;;;;;11.70;9.40;;;;;;;5.36;91.99;95832.00;110702;1263;22352;-82
2024/01/05 11:36:59;;;;;;;12.40;9.60;;;;;;;5.27;91.96;95823.23;110608;1272;22217;-82
2024/01/05 11:39:53;;;;;;;11.30;8.00;;;;;;;5.50;92.25;95822.89;110590;1270;22304;-82
2024/01/05 11:42:51;;;;;;;11.00;8.40;;;;;;;5.42;91.23;95822.80;110582;1273;22467;-81
2024/01/05 11:45:52;;;;;;;11.50;8.30;;;;;;;5.31;91.23;95820.64;110627;1272;67886;-82
2024/01/05 11:49:02;;;;;;;10.60;8.20;;;;;;;5.16;90.76;95814.77;110707;1270;22245;-81
2024/01/05 11:51:40;;;;;;;10.50;8.10;;;;;;;5.03;91.00;95815.91;110487;1266;22215;-82
2024/01/05 11:54:18;;;;;;;10.60;8.30;;;;;;;5.22;91.79;95808.52;110588;1267;108874;-82
2024/01/05 11:57:09;;;;;;;13.00;9.40;;;;;;;5.51;92.23;95806.01;110748;1269;22779;-82
2024/01/05 12:00:09;;;;;;;13.60;8.70;;;;;;;5.79;92.15;95809.90;110651;1272;22394;-82
2024/01/05 12:02:47;;;;;;;11.50;8.10;;;;;;;5.96;91.67;95810.63;110653;1272;22255;-82
2024/01/05 12:05:23;;;;;;;12.90;9.40;;;;;;;5.85;90.66;95813.63;110525;1272;142114;-82
2024/01/05 12:08:18;;;;;;;13.30;9.50;;;;;;;5.70;90.60;95809.24;110685;1271;22278;-81
2024/01/05 12:11:02;;;;;;;13.60;9.80;;;;;;;5.82;90.97;95808.48;109437;1272;22564;-81
2024/01/05 12:13:41;;;;;;;11.90;8.40;;;;;;;5.96;90.76;95807.31;109344;1272;25297;-81